sensor_id;sensor_type;location;lat;lon;timestamp;P1;durP1;ratioP1;P2;durP2;ratioP2
39924;SDS011;25592;49.986;11.618;2023-08-06T00:01:53;7.40;;;4.53;;
39924;SDS011;25592;49.986;11.618;2023-08-06T00:04:39;6.13;;;4.63;;
39924;SDS011;25592;49.986;11.618;2023-08-06T00:07:24;10.73;;;6.45;;
39924;SDS011;25592;49.986;11.618;2023-08-06T00:10:10;8.45;;;4.43;;
39924;SDS011;25592;49.986;11.618;2023-08-06T00:12:55;9.77;;;4.10;;
39924;SDS011;25592;49.986;11.618;2023-08-06T00:15:41;8.27;;;3.72;;
39924;SDS011;25592;49.986;11.618;2023-08-06T00:18:26;10.80;;;2.85;;
39924;SDS011;25592;49.986;11.618;2023-08-06T00:21:12;7.35;;;2.70;;
39924;SDS011;25592;49.986;11.618;2023-08-06T00:23:57;6.13;;;3.08;;
39924;SDS011;25592;49.986;11.618;2023-08-06T00:26:43;6.03;;;2.10;;
39924;SDS011;25592;49.986;11.618;2023-08-06T00:29:28;4.30;;;1.88;;
39924;SDS011;25592;49.986;11.618;2023-08-06T00:32:13;3.90;;;2.00;;
39924;SDS011;25592;49.986;11.618;2023-08-06T00:34:59;4.18;;;2.55;;
39924;SDS011;25592;49.986;11.618;2023-08-06T00:37:44;8.82;;;3.75;;
39924;SDS011;25592;49.986;11.618;2023-08-06T00:40:30;3.47;;;2.00;;
39924;SDS011;25592;49.986;11.618;2023-08-06T00:43:15;8.13;;;2.25;;
39924;SDS011;25592;49.986;11.618;2023-08-06T00:46:01;2.92;;;1.73;;
39924;SDS011;25592;49.986;11.618;2023-08-06T00:48:46;5.03;;;2.30;;
39924;SDS011;25592;49.986;11.618;2023-08-06T00:51:32;4.05;;;2.28;;
39924;SDS011;25592;49.986;11.618;2023-08-06T00:54:18;3.42;;;1.80;;
39924;SDS011;25592;49.986;11.618;2023-08-06T00:57:04;3.35;;;1.80;;
39924;SDS011;25592;49.986;11.618;2023-08-06T00:59:50;3.75;;;1.92;;
39924;SDS011;25592;49.986;11.618;2023-08-06T01:02:36;2.30;;;1.40;;
39924;SDS011;25592;49.986;11.618;2023-08-06T01:05:22;2.85;;;1.70;;
39924;SDS011;25592;49.986;11.618;2023-08-06T01:08:12;2.67;;;1.70;;
39924;SDS011;25592;49.986;11.618;2023-08-06T01:11:08;4.10;;;1.88;;
39924;SDS011;25592;49.986;11.618;2023-08-06T01:14:16;4.30;;;1.50;;
39924;SDS011;25592;49.986;11.618;2023-08-06T01:17:08;2.83;;;1.88;;
39924;SDS011;25592;49.986;11.618;2023-08-06T01:19:54;4.00;;;1.67;;
39924;SDS011;25592;49.986;11.618;2023-08-06T01:22:40;3.63;;;1.80;;
39924;SDS011;25592;49.986;11.618;2023-08-06T01:25:28;2.30;;;1.45;;
39924;SDS011;25592;49.986;11.618;2023-08-06T01:28:40;4.35;;;1.80;;
39924;SDS011;25592;49.986;11.618;2023-08-06T01:31:31;3.65;;;2.25;;
39924;SDS011;25592;49.986;11.618;2023-08-06T01:34:28;2.90;;;1.80;;
39924;SDS011;25592;49.986;11.618;2023-08-06T01:37:15;2.90;;;1.80;;
39924;SDS011;25592;49.986;11.618;2023-08-06T01:40:01;3.20;;;1.45;;
39924;SDS011;25592;49.986;11.618;2023-08-06T01:42:50;2.80;;;1.63;;
39924;SDS011;25592;49.986;11.618;2023-08-06T01:45:35;4.95;;;1.60;;
39924;SDS011;25592;49.986;11.618;2023-08-06T01:48:21;3.83;;;1.80;;
39924;SDS011;25592;49.986;11.618;2023-08-06T01:51:06;4.72;;;1.90;;
39924;SDS011;25592;49.986;11.618;2023-08-06T01:53:52;3.95;;;1.65;;
39924;SDS011;25592;49.986;11.618;2023-08-06T01:56:38;3.00;;;1.70;;
39924;SDS011;25592;49.986;11.618;2023-08-06T01:59:23;2.75;;;1.45;;
39924;SDS011;25592;49.986;11.618;2023-08-06T02:02:09;3.15;;;1.85;;
39924;SDS011;25592;49.986;11.618;2023-08-06T02:04:54;3.90;;;1.80;;
39924;SDS011;25592;49.986;11.618;2023-08-06T02:07:40;3.10;;;1.77;;
39924;SDS011;25592;49.986;11.618;2023-08-06T02:10:25;4.82;;;2.10;;
39924;SDS011;25592;49.986;11.618;2023-08-06T02:13:11;4.13;;;2.17;;
39924;SDS011;25592;49.986;11.618;2023-08-06T02:15:56;4.25;;;2.35;;
39924;SDS011;25592;49.986;11.618;2023-08-06T02:18:42;5.18;;;2.40;;
39924;SDS011;25592;49.986;11.618;2023-08-06T02:21:27;3.97;;;2.65;;
39924;SDS011;25592;49.986;11.618;2023-08-06T02:24:13;4.88;;;2.83;;
39924;SDS011;25592;49.986;11.618;2023-08-06T02:26:58;4.07;;;2.92;;
39924;SDS011;25592;49.986;11.618;2023-08-06T02:29:44;6.15;;;3.17;;
39924;SDS011;25592;49.986;11.618;2023-08-06T02:32:29;7.32;;;5.30;;
39924;SDS011;25592;49.986;11.618;2023-08-06T02:35:16;19.00;;;11.52;;
39924;SDS011;25592;49.986;11.618;2023-08-06T02:38:02;10.20;;;5.13;;
39924;SDS011;25592;49.986;11.618;2023-08-06T02:40:47;6.13;;;3.63;;
39924;SDS011;25592;49.986;11.618;2023-08-06T02:43:33;8.23;;;3.65;;
39924;SDS011;25592;49.986;11.618;2023-08-06T02:46:18;5.35;;;3.58;;
39924;SDS011;25592;49.986;11.618;2023-08-06T02:49:04;4.93;;;3.50;;
39924;SDS011;25592;49.986;11.618;2023-08-06T02:51:49;4.93;;;3.22;;
39924;SDS011;25592;49.986;11.618;2023-08-06T02:54:35;6.85;;;3.60;;
39924;SDS011;25592;49.986;11.618;2023-08-06T02:57:20;5.55;;;3.47;;
39924;SDS011;25592;49.986;11.618;2023-08-06T03:00:06;4.03;;;3.13;;
39924;SDS011;25592;49.986;11.618;2023-08-06T03:02:52;4.68;;;3.38;;
39924;SDS011;25592;49.986;11.618;2023-08-06T03:05:38;5.97;;;3.35;;
39924;SDS011;25592;49.986;11.618;2023-08-06T03:08:24;4.07;;;2.55;;
39924;SDS011;25592;49.986;11.618;2023-08-06T03:11:10;8.43;;;3.30;;
39924;SDS011;25592;49.986;11.618;2023-08-06T03:13:55;7.43;;;3.05;;
39924;SDS011;25592;49.986;11.618;2023-08-06T03:16:41;4.28;;;3.25;;
39924;SDS011;25592;49.986;11.618;2023-08-06T03:19:26;4.05;;;2.90;;
39924;SDS011;25592;49.986;11.618;2023-08-06T03:22:12;5.05;;;3.10;;
39924;SDS011;25592;49.986;11.618;2023-08-06T03:24:57;5.32;;;3.20;;
39924;SDS011;25592;49.986;11.618;2023-08-06T03:27:43;5.95;;;3.13;;
39924;SDS011;25592;49.986;11.618;2023-08-06T03:30:29;4.25;;;2.65;;
39924;SDS011;25592;49.986;11.618;2023-08-06T03:33:14;3.38;;;2.20;;
39924;SDS011;25592;49.986;11.618;2023-08-06T03:36:00;4.65;;;2.50;;
39924;SDS011;25592;49.986;11.618;2023-08-06T03:38:45;3.30;;;2.00;;
39924;SDS011;25592;49.986;11.618;2023-08-06T03:41:31;3.45;;;2.13;;
39924;SDS011;25592;49.986;11.618;2023-08-06T03:44:16;3.28;;;2.15;;
39924;SDS011;25592;49.986;11.618;2023-08-06T03:47:02;3.60;;;2.10;;
39924;SDS011;25592;49.986;11.618;2023-08-06T03:49:47;3.35;;;2.15;;
39924;SDS011;25592;49.986;11.618;2023-08-06T03:52:34;4.80;;;2.03;;
39924;SDS011;25592;49.986;11.618;2023-08-06T03:55:20;3.45;;;2.03;;
39924;SDS011;25592;49.986;11.618;2023-08-06T03:58:06;4.32;;;2.00;;
39924;SDS011;25592;49.986;11.618;2023-08-06T04:01:01;3.45;;;1.88;;
39924;SDS011;25592;49.986;11.618;2023-08-06T04:03:47;3.45;;;2.00;;
39924;SDS011;25592;49.986;11.618;2023-08-06T04:06:33;3.20;;;1.95;;
39924;SDS011;25592;49.986;11.618;2023-08-06T04:09:19;5.32;;;2.22;;
39924;SDS011;25592;49.986;11.618;2023-08-06T04:12:04;3.33;;;2.15;;
39924;SDS011;25592;49.986;11.618;2023-08-06T04:14:51;3.67;;;2.17;;
39924;SDS011;25592;49.986;11.618;2023-08-06T04:17:37;6.57;;;2.25;;
39924;SDS011;25592;49.986;11.618;2023-08-06T04:20:22;3.72;;;2.15;;
39924;SDS011;25592;49.986;11.618;2023-08-06T04:23:08;3.28;;;2.30;;
39924;SDS011;25592;49.986;11.618;2023-08-06T04:25:56;3.10;;;1.90;;
39924;SDS011;25592;49.986;11.618;2023-08-06T04:28:42;5.97;;;2.20;;
39924;SDS011;25592;49.986;11.618;2023-08-06T04:31:28;7.00;;;2.53;;
39924;SDS011;25592;49.986;11.618;2023-08-06T04:34:14;4.90;;;2.08;;
39924;SDS011;25592;49.986;11.618;2023-08-06T04:36:59;4.47;;;2.50;;
39924;SDS011;25592;49.986;11.618;2023-08-06T04:39:45;4.75;;;2.33;;
39924;SDS011;25592;49.986;11.618;2023-08-06T04:42:30;3.70;;;2.15;;
39924;SDS011;25592;49.986;11.618;2023-08-06T04:45:16;3.13;;;1.70;;
39924;SDS011;25592;49.986;11.618;2023-08-06T04:48:01;3.00;;;1.80;;
39924;SDS011;25592;49.986;11.618;2023-08-06T04:50:48;4.38;;;2.10;;
39924;SDS011;25592;49.986;11.618;2023-08-06T04:53:34;3.30;;;2.03;;
39924;SDS011;25592;49.986;11.618;2023-08-06T04:56:20;3.40;;;1.83;;
39924;SDS011;25592;49.986;11.618;2023-08-06T04:59:05;4.28;;;2.40;;
39924;SDS011;25592;49.986;11.618;2023-08-06T05:01:51;3.15;;;2.05;;
39924;SDS011;25592;49.986;11.618;2023-08-06T05:04:37;3.00;;;2.35;;
39924;SDS011;25592;49.986;11.618;2023-08-06T05:07:22;4.63;;;2.53;;
39924;SDS011;25592;49.986;11.618;2023-08-06T05:10:08;4.35;;;2.60;;
39924;SDS011;25592;49.986;11.618;2023-08-06T05:12:54;6.75;;;2.75;;
39924;SDS011;25592;49.986;11.618;2023-08-06T05:15:39;4.70;;;2.08;;
39924;SDS011;25592;49.986;11.618;2023-08-06T05:18:27;3.85;;;2.10;;
39924;SDS011;25592;49.986;11.618;2023-08-06T05:21:12;3.42;;;2.05;;
39924;SDS011;25592;49.986;11.618;2023-08-06T05:23:57;3.28;;;2.42;;
39924;SDS011;25592;49.986;11.618;2023-08-06T05:26:43;3.72;;;2.90;;
39924;SDS011;25592;49.986;11.618;2023-08-06T05:29:31;4.93;;;2.30;;
39924;SDS011;25592;49.986;11.618;2023-08-06T05:32:16;3.00;;;2.00;;
39924;SDS011;25592;49.986;11.618;2023-08-06T05:35:02;5.40;;;2.30;;
39924;SDS011;25592;49.986;11.618;2023-08-06T05:37:48;4.18;;;2.10;;
39924;SDS011;25592;49.986;11.618;2023-08-06T05:40:34;4.53;;;2.42;;
39924;SDS011;25592;49.986;11.618;2023-08-06T05:43:20;4.07;;;2.10;;
39924;SDS011;25592;49.986;11.618;2023-08-06T05:46:05;3.00;;;2.00;;
39924;SDS011;25592;49.986;11.618;2023-08-06T05:48:51;4.03;;;2.00;;
39924;SDS011;25592;49.986;11.618;2023-08-06T05:51:37;3.60;;;2.25;;
39924;SDS011;25592;49.986;11.618;2023-08-06T05:54:22;3.47;;;2.30;;
39924;SDS011;25592;49.986;11.618;2023-08-06T05:57:08;4.78;;;1.80;;
39924;SDS011;25592;49.986;11.618;2023-08-06T05:59:53;3.70;;;2.22;;
39924;SDS011;25592;49.986;11.618;2023-08-06T06:02:39;4.85;;;2.50;;
39924;SDS011;25592;49.986;11.618;2023-08-06T06:05:24;3.95;;;2.35;;
39924;SDS011;25592;49.986;11.618;2023-08-06T06:08:10;3.17;;;2.10;;
39924;SDS011;25592;49.986;11.618;2023-08-06T06:10:55;4.32;;;2.30;;
39924;SDS011;25592;49.986;11.618;2023-08-06T06:13:41;4.10;;;2.05;;
39924;SDS011;25592;49.986;11.618;2023-08-06T06:16:26;3.25;;;2.10;;
39924;SDS011;25592;49.986;11.618;2023-08-06T06:19:12;3.08;;;2.00;;
39924;SDS011;25592;49.986;11.618;2023-08-06T06:21:57;4.78;;;2.10;;
39924;SDS011;25592;49.986;11.618;2023-08-06T06:24:43;5.95;;;2.20;;
39924;SDS011;25592;49.986;11.618;2023-08-06T06:27:29;4.55;;;2.28;;
39924;SDS011;25592;49.986;11.618;2023-08-06T06:30:14;3.50;;;2.13;;
39924;SDS011;25592;49.986;11.618;2023-08-06T06:33:00;4.65;;;2.22;;
39924;SDS011;25592;49.986;11.618;2023-08-06T06:35:45;4.65;;;2.17;;
39924;SDS011;25592;49.986;11.618;2023-08-06T06:38:31;2.97;;;1.80;;
39924;SDS011;25592;49.986;11.618;2023-08-06T06:41:16;7.03;;;2.60;;
39924;SDS011;25592;49.986;11.618;2023-08-06T06:44:02;5.85;;;2.45;;
39924;SDS011;25592;49.986;11.618;2023-08-06T06:46:47;3.63;;;2.30;;
39924;SDS011;25592;49.986;11.618;2023-08-06T06:49:34;3.85;;;2.08;;
39924;SDS011;25592;49.986;11.618;2023-08-06T06:52:19;3.70;;;2.20;;
39924;SDS011;25592;49.986;11.618;2023-08-06T06:55:05;5.15;;;2.55;;
39924;SDS011;25592;49.986;11.618;2023-08-06T06:57:50;8.27;;;2.90;;
39924;SDS011;25592;49.986;11.618;2023-08-06T07:00:36;6.28;;;2.42;;
39924;SDS011;25592;49.986;11.618;2023-08-06T07:03:22;5.30;;;2.88;;
39924;SDS011;25592;49.986;11.618;2023-08-06T07:06:07;4.10;;;2.65;;
39924;SDS011;25592;49.986;11.618;2023-08-06T07:08:53;3.55;;;2.25;;
39924;SDS011;25592;49.986;11.618;2023-08-06T07:11:39;5.43;;;2.28;;
39924;SDS011;25592;49.986;11.618;2023-08-06T07:14:28;4.55;;;2.75;;
39924;SDS011;25592;49.986;11.618;2023-08-06T07:17:13;5.18;;;2.47;;
39924;SDS011;25592;49.986;11.618;2023-08-06T07:19:59;3.90;;;2.63;;
39924;SDS011;25592;49.986;11.618;2023-08-06T07:22:44;7.55;;;2.90;;
39924;SDS011;25592;49.986;11.618;2023-08-06T07:25:30;5.20;;;3.10;;
39924;SDS011;25592;49.986;11.618;2023-08-06T07:28:16;7.18;;;2.92;;
39924;SDS011;25592;49.986;11.618;2023-08-06T07:31:02;5.13;;;2.33;;
39924;SDS011;25592;49.986;11.618;2023-08-06T07:33:51;6.22;;;2.40;;
39924;SDS011;25592;49.986;11.618;2023-08-06T07:36:37;6.22;;;2.80;;
39924;SDS011;25592;49.986;11.618;2023-08-06T07:39:22;8.25;;;2.72;;
39924;SDS011;25592;49.986;11.618;2023-08-06T07:42:08;4.00;;;2.72;;
39924;SDS011;25592;49.986;11.618;2023-08-06T07:44:55;4.88;;;2.45;;
39924;SDS011;25592;49.986;11.618;2023-08-06T07:47:43;6.60;;;2.78;;
39924;SDS011;25592;49.986;11.618;2023-08-06T07:50:29;6.07;;;2.40;;
39924;SDS011;25592;49.986;11.618;2023-08-06T07:53:14;4.05;;;2.40;;
39924;SDS011;25592;49.986;11.618;2023-08-06T07:56:00;4.90;;;2.63;;
39924;SDS011;25592;49.986;11.618;2023-08-06T07:58:47;5.32;;;3.00;;
39924;SDS011;25592;49.986;11.618;2023-08-06T08:01:32;4.88;;;2.50;;
39924;SDS011;25592;49.986;11.618;2023-08-06T08:04:17;4.22;;;2.10;;
39924;SDS011;25592;49.986;11.618;2023-08-06T08:07:07;3.35;;;2.00;;
39924;SDS011;25592;49.986;11.618;2023-08-06T08:09:54;6.07;;;2.97;;
39924;SDS011;25592;49.986;11.618;2023-08-06T08:12:39;3.72;;;2.28;;
39924;SDS011;25592;49.986;11.618;2023-08-06T08:15:25;4.18;;;2.30;;
39924;SDS011;25592;49.986;11.618;2023-08-06T08:18:12;4.90;;;2.40;;
39924;SDS011;25592;49.986;11.618;2023-08-06T08:20:58;3.90;;;2.20;;
39924;SDS011;25592;49.986;11.618;2023-08-06T08:23:44;4.13;;;2.10;;
39924;SDS011;25592;49.986;11.618;2023-08-06T08:26:30;4.03;;;2.50;;
39924;SDS011;25592;49.986;11.618;2023-08-06T08:29:15;5.50;;;1.90;;
39924;SDS011;25592;49.986;11.618;2023-08-06T08:32:00;5.05;;;2.20;;
39924;SDS011;25592;49.986;11.618;2023-08-06T08:34:46;3.88;;;1.80;;
39924;SDS011;25592;49.986;11.618;2023-08-06T08:37:32;2.97;;;1.73;;
39924;SDS011;25592;49.986;11.618;2023-08-06T08:40:17;3.63;;;1.58;;
39924;SDS011;25592;49.986;11.618;2023-08-06T08:43:03;3.50;;;2.03;;
39924;SDS011;25592;49.986;11.618;2023-08-06T08:45:50;5.68;;;1.67;;
39924;SDS011;25592;49.986;11.618;2023-08-06T08:48:36;5.00;;;1.60;;
39924;SDS011;25592;49.986;11.618;2023-08-06T08:51:21;5.20;;;2.00;;
39924;SDS011;25592;49.986;11.618;2023-08-06T08:54:08;3.55;;;1.58;;
39924;SDS011;25592;49.986;11.618;2023-08-06T08:56:56;3.50;;;1.52;;
39924;SDS011;25592;49.986;11.618;2023-08-06T08:59:41;6.88;;;2.20;;
39924;SDS011;25592;49.986;11.618;2023-08-06T09:02:28;4.88;;;1.90;;
39924;SDS011;25592;49.986;11.618;2023-08-06T09:05:16;2.83;;;1.75;;
39924;SDS011;25592;49.986;11.618;2023-08-06T09:08:03;4.60;;;1.77;;
39924;SDS011;25592;49.986;11.618;2023-08-06T09:10:49;4.93;;;2.25;;
39924;SDS011;25592;49.986;11.618;2023-08-06T09:13:35;5.68;;;2.03;;
39924;SDS011;25592;49.986;11.618;2023-08-06T09:16:22;3.28;;;1.67;;
39924;SDS011;25592;49.986;11.618;2023-08-06T09:19:09;5.57;;;1.30;;
39924;SDS011;25592;49.986;11.618;2023-08-06T09:21:55;2.65;;;1.48;;
39924;SDS011;25592;49.986;11.618;2023-08-06T09:24:42;3.47;;;1.48;;
39924;SDS011;25592;49.986;11.618;2023-08-06T09:27:27;2.85;;;1.33;;
39924;SDS011;25592;49.986;11.618;2023-08-06T09:30:13;2.75;;;1.30;;
39924;SDS011;25592;49.986;11.618;2023-08-06T09:33:23;3.58;;;1.55;;
39924;SDS011;25592;49.986;11.618;2023-08-06T09:36:09;2.83;;;1.30;;
39924;SDS011;25592;49.986;11.618;2023-08-06T09:38:55;2.65;;;1.30;;
39924;SDS011;25592;49.986;11.618;2023-08-06T09:41:42;4.78;;;1.50;;
39924;SDS011;25592;49.986;11.618;2023-08-06T09:44:28;7.00;;;2.28;;
39924;SDS011;25592;49.986;11.618;2023-08-06T09:47:15;2.92;;;1.40;;
39924;SDS011;25592;49.986;11.618;2023-08-06T09:50:02;1.92;;;1.20;;
39924;SDS011;25592;49.986;11.618;2023-08-06T09:52:51;2.92;;;1.48;;
39924;SDS011;25592;49.986;11.618;2023-08-06T09:55:37;5.35;;;1.65;;
39924;SDS011;25592;49.986;11.618;2023-08-06T09:58:23;4.32;;;1.85;;
39924;SDS011;25592;49.986;11.618;2023-08-06T10:01:09;4.57;;;1.42;;
39924;SDS011;25592;49.986;11.618;2023-08-06T10:03:57;3.17;;;1.58;;
39924;SDS011;25592;49.986;11.618;2023-08-06T10:06:42;3.90;;;1.23;;
39924;SDS011;25592;49.986;11.618;2023-08-06T10:09:31;2.50;;;1.10;;
39924;SDS011;25592;49.986;11.618;2023-08-06T10:12:17;3.05;;;1.00;;
39924;SDS011;25592;49.986;11.618;2023-08-06T10:15:06;1.80;;;0.90;;
39924;SDS011;25592;49.986;11.618;2023-08-06T10:17:56;1.85;;;1.10;;
39924;SDS011;25592;49.986;11.618;2023-08-06T10:20:43;3.05;;;1.05;;
39924;SDS011;25592;49.986;11.618;2023-08-06T10:23:35;2.92;;;1.13;;
39924;SDS011;25592;49.986;11.618;2023-08-06T10:26:27;3.10;;;1.05;;
39924;SDS011;25592;49.986;11.618;2023-08-06T10:32:46;1.00;;;0.75;;
39924;SDS011;25592;49.986;11.618;2023-08-06T10:38:24;1.83;;;1.10;;
39924;SDS011;25592;49.986;11.618;2023-08-06T10:44:12;4.78;;;0.90;;
39924;SDS011;25592;49.986;11.618;2023-08-06T10:47:12;1.17;;;0.82;;
39924;SDS011;25592;49.986;11.618;2023-08-06T10:50:14;2.45;;;1.02;;
39924;SDS011;25592;49.986;11.618;2023-08-06T10:53:04;1.98;;;0.90;;
39924;SDS011;25592;49.986;11.618;2023-08-06T10:55:53;1.80;;;1.00;;
39924;SDS011;25592;49.986;11.618;2023-08-06T10:58:38;1.27;;;0.88;;
39924;SDS011;25592;49.986;11.618;2023-08-06T11:01:24;2.65;;;1.00;;
39924;SDS011;25592;49.986;11.618;2023-08-06T11:04:13;2.97;;;1.08;;
39924;SDS011;25592;49.986;11.618;2023-08-06T11:07:01;1.48;;;0.90;;
39924;SDS011;25592;49.986;11.618;2023-08-06T11:09:49;1.25;;;0.73;;
39924;SDS011;25592;49.986;11.618;2023-08-06T11:12:36;2.53;;;0.73;;
39924;SDS011;25592;49.986;11.618;2023-08-06T11:15:21;1.33;;;0.65;;
39924;SDS011;25592;49.986;11.618;2023-08-06T11:18:07;2.38;;;0.60;;
39924;SDS011;25592;49.986;11.618;2023-08-06T11:20:52;0.98;;;0.68;;
39924;SDS011;25592;49.986;11.618;2023-08-06T11:23:38;0.65;;;0.57;;
39924;SDS011;25592;49.986;11.618;2023-08-06T11:26:25;4.32;;;0.70;;
39924;SDS011;25592;49.986;11.618;2023-08-06T11:29:10;1.58;;;0.82;;
39924;SDS011;25592;49.986;11.618;2023-08-06T11:32:03;1.08;;;0.70;;
39924;SDS011;25592;49.986;11.618;2023-08-06T11:34:49;0.77;;;0.60;;
39924;SDS011;25592;49.986;11.618;2023-08-06T11:37:34;3.47;;;1.35;;
39924;SDS011;25592;49.986;11.618;2023-08-06T11:40:21;0.73;;;0.60;;
39924;SDS011;25592;49.986;11.618;2023-08-06T11:43:07;0.63;;;0.40;;
39924;SDS011;25592;49.986;11.618;2023-08-06T11:45:52;0.43;;;0.43;;
39924;SDS011;25592;49.986;11.618;2023-08-06T11:48:53;0.60;;;0.50;;
39924;SDS011;25592;49.986;11.618;2023-08-06T11:51:42;1.00;;;0.60;;
39924;SDS011;25592;49.986;11.618;2023-08-06T11:54:30;0.43;;;0.40;;
39924;SDS011;25592;49.986;11.618;2023-08-06T11:57:18;1.15;;;0.60;;
39924;SDS011;25592;49.986;11.618;2023-08-06T12:02:52;0.63;;;0.47;;
39924;SDS011;25592;49.986;11.618;2023-08-06T12:05:39;1.23;;;0.70;;
39924;SDS011;25592;49.986;11.618;2023-08-06T12:08:28;2.08;;;0.90;;
39924;SDS011;25592;49.986;11.618;2023-08-06T12:11:13;1.45;;;0.70;;
39924;SDS011;25592;49.986;11.618;2023-08-06T12:13:59;1.65;;;1.00;;
39924;SDS011;25592;49.986;11.618;2023-08-06T12:16:44;1.00;;;0.70;;
39924;SDS011;25592;49.986;11.618;2023-08-06T12:19:30;2.10;;;0.60;;
39924;SDS011;25592;49.986;11.618;2023-08-06T12:22:16;1.70;;;0.50;;
39924;SDS011;25592;49.986;11.618;2023-08-06T12:25:02;0.95;;;0.63;;
39924;SDS011;25592;49.986;11.618;2023-08-06T12:27:48;1.73;;;1.00;;
39924;SDS011;25592;49.986;11.618;2023-08-06T12:30:33;1.05;;;0.70;;
39924;SDS011;25592;49.986;11.618;2023-08-06T12:33:19;2.75;;;1.20;;
39924;SDS011;25592;49.986;11.618;2023-08-06T12:36:04;1.17;;;0.80;;
39924;SDS011;25592;49.986;11.618;2023-08-06T12:38:50;1.33;;;0.82;;
39924;SDS011;25592;49.986;11.618;2023-08-06T12:41:35;1.90;;;0.80;;
39924;SDS011;25592;49.986;11.618;2023-08-06T12:44:21;1.42;;;0.57;;
39924;SDS011;25592;49.986;11.618;2023-08-06T12:47:07;1.08;;;0.63;;
39924;SDS011;25592;49.986;11.618;2023-08-06T12:49:52;2.33;;;0.73;;
39924;SDS011;25592;49.986;11.618;2023-08-06T12:52:38;0.70;;;0.50;;
39924;SDS011;25592;49.986;11.618;2023-08-06T12:55:23;0.60;;;0.60;;
39924;SDS011;25592;49.986;11.618;2023-08-06T12:58:08;0.75;;;0.70;;
39924;SDS011;25592;49.986;11.618;2023-08-06T13:00:54;0.75;;;0.63;;
39924;SDS011;25592;49.986;11.618;2023-08-06T13:03:40;0.45;;;0.45;;
39924;SDS011;25592;49.986;11.618;2023-08-06T13:06:25;0.90;;;0.40;;
39924;SDS011;25592;49.986;11.618;2023-08-06T13:09:10;0.63;;;0.40;;
39924;SDS011;25592;49.986;11.618;2023-08-06T13:11:56;0.50;;;0.40;;
39924;SDS011;25592;49.986;11.618;2023-08-06T13:14:42;0.57;;;0.50;;
39924;SDS011;25592;49.986;11.618;2023-08-06T13:17:31;0.98;;;0.60;;
39924;SDS011;25592;49.986;11.618;2023-08-06T13:20:16;0.60;;;0.60;;
39924;SDS011;25592;49.986;11.618;2023-08-06T13:23:04;0.63;;;0.50;;
39924;SDS011;25592;49.986;11.618;2023-08-06T13:25:50;0.50;;;0.50;;
39924;SDS011;25592;49.986;11.618;2023-08-06T13:28:35;0.35;;;0.35;;
39924;SDS011;25592;49.986;11.618;2023-08-06T13:31:21;0.73;;;0.52;;
39924;SDS011;25592;49.986;11.618;2023-08-06T13:34:06;0.82;;;0.43;;
39924;SDS011;25592;49.986;11.618;2023-08-06T13:36:51;0.40;;;0.40;;
39924;SDS011;25592;49.986;11.618;2023-08-06T13:39:38;1.00;;;0.60;;
39924;SDS011;25592;49.986;11.618;2023-08-06T13:42:23;0.57;;;0.50;;
39924;SDS011;25592;49.986;11.618;2023-08-06T13:45:09;0.50;;;0.50;;
39924;SDS011;25592;49.986;11.618;2023-08-06T13:47:55;0.52;;;0.40;;
39924;SDS011;25592;49.986;11.618;2023-08-06T13:50:40;0.60;;;0.50;;
39924;SDS011;25592;49.986;11.618;2023-08-06T13:53:26;1.10;;;0.68;;
39924;SDS011;25592;49.986;11.618;2023-08-06T13:56:15;0.40;;;0.40;;
39924;SDS011;25592;49.986;11.618;2023-08-06T13:59:02;0.68;;;0.40;;
39924;SDS011;25592;49.986;11.618;2023-08-06T14:01:48;0.70;;;0.43;;
39924;SDS011;25592;49.986;11.618;2023-08-06T14:04:37;0.50;;;0.50;;
39924;SDS011;25592;49.986;11.618;2023-08-06T14:07:22;0.73;;;0.50;;
39924;SDS011;25592;49.986;11.618;2023-08-06T14:10:08;0.75;;;0.50;;
39924;SDS011;25592;49.986;11.618;2023-08-06T14:12:54;1.00;;;0.50;;
39924;SDS011;25592;49.986;11.618;2023-08-06T14:15:53;2.40;;;0.77;;
39924;SDS011;25592;49.986;11.618;2023-08-06T14:18:39;0.95;;;0.77;;
39924;SDS011;25592;49.986;11.618;2023-08-06T14:21:26;1.13;;;0.43;;
39924;SDS011;25592;49.986;11.618;2023-08-06T14:24:11;1.17;;;0.50;;
39924;SDS011;25592;49.986;11.618;2023-08-06T14:26:57;0.90;;;0.52;;
39924;SDS011;25592;49.986;11.618;2023-08-06T14:29:42;0.85;;;0.50;;
39924;SDS011;25592;49.986;11.618;2023-08-06T14:32:27;0.95;;;0.50;;
39924;SDS011;25592;49.986;11.618;2023-08-06T14:35:13;0.70;;;0.43;;
39924;SDS011;25592;49.986;11.618;2023-08-06T14:37:59;1.23;;;0.52;;
39924;SDS011;25592;49.986;11.618;2023-08-06T14:40:47;1.80;;;0.80;;
39924;SDS011;25592;49.986;11.618;2023-08-06T14:43:32;3.53;;;0.70;;
39924;SDS011;25592;49.986;11.618;2023-08-06T14:46:18;1.98;;;0.77;;
39924;SDS011;25592;49.986;11.618;2023-08-06T14:49:03;2.60;;;0.60;;
39924;SDS011;25592;49.986;11.618;2023-08-06T14:51:49;3.83;;;1.00;;
39924;SDS011;25592;49.986;11.618;2023-08-06T14:54:35;1.20;;;0.60;;
39924;SDS011;25592;49.986;11.618;2023-08-06T14:57:21;1.10;;;0.50;;
39924;SDS011;25592;49.986;11.618;2023-08-06T15:00:12;0.50;;;0.40;;
39924;SDS011;25592;49.986;11.618;2023-08-06T15:02:58;2.15;;;0.80;;
39924;SDS011;25592;49.986;11.618;2023-08-06T15:05:43;2.53;;;0.70;;
39924;SDS011;25592;49.986;11.618;2023-08-06T15:08:31;2.47;;;0.68;;
39924;SDS011;25592;49.986;11.618;2023-08-06T15:11:16;1.70;;;0.65;;
39924;SDS011;25592;49.986;11.618;2023-08-06T15:14:02;3.53;;;1.05;;
39924;SDS011;25592;49.986;11.618;2023-08-06T15:16:50;2.25;;;0.80;;
39924;SDS011;25592;49.986;11.618;2023-08-06T15:19:37;3.25;;;0.93;;
39924;SDS011;25592;49.986;11.618;2023-08-06T15:22:23;3.47;;;0.80;;
39924;SDS011;25592;49.986;11.618;2023-08-06T15:25:08;3.47;;;0.80;;
39924;SDS011;25592;49.986;11.618;2023-08-06T15:27:54;1.95;;;0.60;;
39924;SDS011;25592;49.986;11.618;2023-08-06T15:30:40;6.90;;;2.17;;
39924;SDS011;25592;49.986;11.618;2023-08-06T15:33:29;2.22;;;0.63;;
39924;SDS011;25592;49.986;11.618;2023-08-06T15:36:15;1.88;;;0.45;;
39924;SDS011;25592;49.986;11.618;2023-08-06T15:39:04;0.93;;;0.50;;
39924;SDS011;25592;49.986;11.618;2023-08-06T15:41:49;1.27;;;0.60;;
39924;SDS011;25592;49.986;11.618;2023-08-06T15:44:35;0.60;;;0.35;;
39924;SDS011;25592;49.986;11.618;2023-08-06T15:47:20;1.15;;;0.63;;
39924;SDS011;25592;49.986;11.618;2023-08-06T15:50:07;0.60;;;0.50;;
39924;SDS011;25592;49.986;11.618;2023-08-06T15:52:53;0.45;;;0.30;;
39924;SDS011;25592;49.986;11.618;2023-08-06T15:55:38;9.45;;;1.05;;
39924;SDS011;25592;49.986;11.618;2023-08-06T15:58:24;0.95;;;0.38;;
39924;SDS011;25592;49.986;11.618;2023-08-06T16:01:10;1.05;;;0.50;;
39924;SDS011;25592;49.986;11.618;2023-08-06T16:03:55;2.05;;;0.40;;
39924;SDS011;25592;49.986;11.618;2023-08-06T16:06:40;0.40;;;0.20;;
39924;SDS011;25592;49.986;11.618;2023-08-06T16:09:26;0.55;;;0.32;;
39924;SDS011;25592;49.986;11.618;2023-08-06T16:12:11;0.68;;;0.30;;
39924;SDS011;25592;49.986;11.618;2023-08-06T16:14:57;0.45;;;0.30;;
39924;SDS011;25592;49.986;11.618;2023-08-06T16:17:43;0.85;;;0.43;;
39924;SDS011;25592;49.986;11.618;2023-08-06T16:20:28;2.33;;;0.50;;
39924;SDS011;25592;49.986;11.618;2023-08-06T16:23:14;1.90;;;0.32;;
39924;SDS011;25592;49.986;11.618;2023-08-06T16:26:00;0.35;;;0.32;;
39924;SDS011;25592;49.986;11.618;2023-08-06T16:28:45;1.25;;;0.60;;
39924;SDS011;25592;49.986;11.618;2023-08-06T16:31:31;0.73;;;0.40;;
39924;SDS011;25592;49.986;11.618;2023-08-06T16:34:17;0.65;;;0.38;;
39924;SDS011;25592;49.986;11.618;2023-08-06T16:37:02;0.40;;;0.40;;
39924;SDS011;25592;49.986;11.618;2023-08-06T16:39:48;1.02;;;0.60;;